createdAt,value
2022-10-20T00:00:25.965Z,92.71
2022-10-20T00:01:25.953Z,92.60
2022-10-20T00:02:26.016Z,92.75
2022-10-20T00:03:25.925Z,92.85
2022-10-20T00:04:25.911Z,92.85
2022-10-20T00:05:25.897Z,92.65
2022-10-20T00:06:25.886Z,92.75
2022-10-20T00:07:25.873Z,92.75
2022-10-20T00:08:25.942Z,92.75
2022-10-20T00:09:25.849Z,92.75
2022-10-20T00:10:25.829Z,92.75
2022-10-20T00:11:25.820Z,92.55
2022-10-20T00:12:25.802Z,92.65
2022-10-20T00:13:25.785Z,92.50
2022-10-20T00:14:25.791Z,92.55
2022-10-20T00:15:25.760Z,92.69
2022-10-20T00:16:25.741Z,92.65
2022-10-20T00:17:25.735Z,92.75
2022-10-20T00:18:25.725Z,92.85
2022-10-20T00:19:25.710Z,92.79
2022-10-20T00:20:25.701Z,92.96
2022-10-20T00:21:25.683Z,93.00
2022-10-20T00:22:25.670Z,92.96
2022-10-20T00:23:25.655Z,92.90
2022-10-20T00:24:25.640Z,93.00
2022-10-20T00:25:25.629Z,93.00
2022-10-20T00:26:25.606Z,92.96
2022-10-20T00:27:25.598Z,93.00
2022-10-20T00:28:25.583Z,93.00
2022-10-20T00:29:25.572Z,92.90
2022-10-20T00:30:25.779Z,92.90
2022-10-20T00:31:25.545Z,92.90
2022-10-20T00:32:25.525Z,92.90
2022-10-20T00:33:25.516Z,93.00
2022-10-20T00:34:25.497Z,92.94
2022-10-20T00:35:25.485Z,92.83
2022-10-20T00:36:25.471Z,92.69
2022-10-20T00:37:25.462Z,92.83
2022-10-20T00:38:25.459Z,92.79
2022-10-20T00:39:25.440Z,92.83
2022-10-20T00:40:25.420Z,93.00
2022-10-20T00:41:25.409Z,93.04
2022-10-20T00:42:25.393Z,93.04
2022-10-20T00:43:25.380Z,93.04
2022-10-20T00:44:25.359Z,92.94
2022-10-20T00:45:25.355Z,93.04
2022-10-20T00:46:25.358Z,93.04
2022-10-20T00:47:25.334Z,93.04
2022-10-20T00:48:25.318Z,93.04
2022-10-20T00:49:25.301Z,93.04
2022-10-20T00:50:25.281Z,92.98
2022-10-20T00:51:25.267Z,93.04
2022-10-20T00:52:25.253Z,93.15
2022-10-20T00:53:25.241Z,93.19
2022-10-20T00:54:25.222Z,93.08
2022-10-20T00:55:25.217Z,93.19
2022-10-20T00:56:25.195Z,93.19
2022-10-20T00:57:25.199Z,93.08
2022-10-20T00:58:25.170Z,93.04
2022-10-20T00:59:25.158Z,93.15
2022-10-20T01:00:25.141Z,92.94
2022-10-20T01:01:25.177Z,92.98
2022-10-20T01:02:25.137Z,92.83
2022-10-20T01:03:25.103Z,92.88
2022-10-20T01:04:25.088Z,92.78
2022-10-20T01:05:25.078Z,92.74
2022-10-20T01:06:25.056Z,92.74
2022-10-20T01:07:25.049Z,92.69
2022-10-20T01:08:25.066Z,92.83
2022-10-20T01:09:25.018Z,92.79
2022-10-20T01:10:25.000Z,92.79
2022-10-20T01:11:24.993Z,92.90
2022-10-20T01:12:24.973Z,93.00
2022-10-20T01:13:24.970Z,93.00
2022-10-20T01:14:24.951Z,92.90
2022-10-20T01:16:24.927Z,92.90
2022-10-20T01:17:24.914Z,93.00
2022-10-20T01:18:25.317Z,93.00
2022-10-20T01:19:24.990Z,93.00
2022-10-20T01:20:24.866Z,93.00
2022-10-20T01:21:24.860Z,92.90
2022-10-20T01:22:24.836Z,92.83
2022-10-20T01:23:24.828Z,93.00
2022-10-20T01:24:24.870Z,93.00
2022-10-20T01:25:24.801Z,93.00
2022-10-20T01:26:24.787Z,92.90
2022-10-20T01:27:24.769Z,92.79
2022-10-20T01:28:24.759Z,92.79
2022-10-20T01:29:24.739Z,92.83
2022-10-20T01:30:24.737Z,92.79
2022-10-20T01:31:24.722Z,92.79
2022-10-20T01:32:24.710Z,92.90
2022-10-20T01:33:24.803Z,92.90
2022-10-20T01:34:24.700Z,92.90
2022-10-20T01:35:24.667Z,92.90
2022-10-20T01:36:24.650Z,93.10
2022-10-20T01:37:34.272Z,92.90
2022-10-20T01:38:25.644Z,93.00
2022-10-20T01:39:24.603Z,93.00
2022-10-20T01:40:24.594Z,93.00
2022-10-20T01:41:24.575Z,92.79
2022-10-20T01:42:24.681Z,93.00
2022-10-20T01:43:24.546Z,92.90
2022-10-20T01:44:24.538Z,92.94
2022-10-20T01:45:24.520Z,92.79
2022-10-20T01:46:24.513Z,92.69
2022-10-20T01:47:24.498Z,92.79
2022-10-20T01:48:24.486Z,92.83
2022-10-20T01:49:24.473Z,93.00
2022-10-20T01:50:24.497Z,92.94
2022-10-20T01:51:24.441Z,92.94
2022-10-20T01:52:24.439Z,92.94
2022-10-20T01:53:24.414Z,92.83
2022-10-20T01:54:24.400Z,92.94
2022-10-20T01:55:24.384Z,92.94
2022-10-20T01:56:24.372Z,93.15
2022-10-20T01:57:24.355Z,93.15
2022-10-20T01:58:24.350Z,93.04
2022-10-20T01:59:24.332Z,93.04
2022-10-20T02:00:24.322Z,92.98
2022-10-20T02:01:24.410Z,92.94
2022-10-20T02:02:24.291Z,92.98
2022-10-20T02:03:24.271Z,93.04
2022-10-20T02:04:24.264Z,93.15
2022-10-20T02:05:24.242Z,93.15
2022-10-20T02:06:24.259Z,93.04
2022-10-20T02:07:24.220Z,93.04
2022-10-20T02:08:24.210Z,92.94
2022-10-20T02:09:24.187Z,92.94
2022-10-20T02:10:24.184Z,92.83
2022-10-20T02:11:24.165Z,92.74
2022-10-20T02:12:24.155Z,92.83
2022-10-20T02:13:24.141Z,92.94
2022-10-20T02:14:24.127Z,92.94
2022-10-20T02:15:24.111Z,93.04
2022-10-20T02:16:24.106Z,92.94
2022-10-20T02:17:24.084Z,92.83
2022-10-20T02:18:24.074Z,92.90
2022-10-20T02:19:24.051Z,92.83
2022-10-20T02:20:24.039Z,92.94
2022-10-20T02:21:24.025Z,92.94
2022-10-20T02:22:24.038Z,92.94
2022-10-20T02:23:23.994Z,92.90
2022-10-20T02:24:23.987Z,92.83
2022-10-20T02:25:23.970Z,92.94
2022-10-20T02:26:23.968Z,92.83
2022-10-20T02:27:23.946Z,92.94
2022-10-20T02:28:23.933Z,92.94
2022-10-20T02:29:24.019Z,92.83
2022-10-20T02:30:23.902Z,92.79
2022-10-20T02:31:23.888Z,92.90
2022-10-20T02:32:23.881Z,92.94
2022-10-20T02:33:23.862Z,92.83
2022-10-20T02:34:23.851Z,92.83
2022-10-20T02:35:23.835Z,92.90
2022-10-20T02:36:23.822Z,92.83
2022-10-20T02:37:23.810Z,92.94
2022-10-20T02:38:23.822Z,92.90
2022-10-20T02:39:23.778Z,93.04
2022-10-20T02:40:23.768Z,93.04
2022-10-20T02:41:23.752Z,93.04
2022-10-20T02:42:23.739Z,93.00
2022-10-20T02:43:23.719Z,93.04
2022-10-20T02:44:23.708Z,93.04
2022-10-20T02:45:23.692Z,92.94
2022-10-20T02:46:23.683Z,92.83
2022-10-20T02:47:23.664Z,92.79
2022-10-20T02:48:23.659Z,92.90
2022-10-20T02:49:23.637Z,92.90
2022-10-20T02:50:23.631Z,93.04
2022-10-20T02:51:23.619Z,93.00
2022-10-20T02:52:23.604Z,92.94
2022-10-20T02:53:23.591Z,92.90
2022-10-20T02:54:23.593Z,92.94
2022-10-20T02:55:23.566Z,92.83
2022-10-20T02:56:25.438Z,92.79
2022-10-20T02:57:23.532Z,92.94
2022-10-20T02:58:23.521Z,92.94
2022-10-20T02:59:23.511Z,92.90
2022-10-20T03:00:23.494Z,92.94
2022-10-20T03:01:23.550Z,93.04
2022-10-20T03:02:23.460Z,93.04
2022-10-20T03:03:23.452Z,93.00
2022-10-20T03:04:23.435Z,93.00
2022-10-20T03:05:23.424Z,93.04
2022-10-20T03:06:23.410Z,92.94
2022-10-20T03:07:23.399Z,93.04
2022-10-20T03:08:23.382Z,92.94
2022-10-20T03:09:23.368Z,92.94
2022-10-20T03:10:23.376Z,92.94
2022-10-20T03:11:23.343Z,92.90
2022-10-20T03:12:23.321Z,92.83
2022-10-20T03:13:23.372Z,92.79
2022-10-20T03:14:23.305Z,92.79
2022-10-20T03:15:23.290Z,92.69
2022-10-20T03:16:23.275Z,92.69
2022-10-20T03:17:23.259Z,92.69
2022-10-20T03:18:23.245Z,92.74
2022-10-20T03:19:23.231Z,92.90
2022-10-20T03:20:23.214Z,92.83
2022-10-20T03:21:23.200Z,92.69
2022-10-20T03:22:23.231Z,92.75
2022-10-20T03:23:23.178Z,92.79
2022-10-20T03:24:23.166Z,92.79
2022-10-20T03:25:23.150Z,92.69
2022-10-20T03:26:23.153Z,92.69
2022-10-20T03:27:23.121Z,92.79
2022-10-20T03:28:23.103Z,92.74
2022-10-20T03:29:23.093Z,92.79
2022-10-20T03:30:23.533Z,92.69
2022-10-20T03:31:23.096Z,92.79
2022-10-20T03:32:23.052Z,92.74
2022-10-20T03:33:23.043Z,92.79
2022-10-20T03:34:23.026Z,92.94
2022-10-20T03:35:23.016Z,92.83
2022-10-20T03:36:22.998Z,92.83
2022-10-20T03:37:22.990Z,92.83
2022-10-20T03:38:22.967Z,92.79
2022-10-20T03:39:22.962Z,92.83
2022-10-20T03:40:22.940Z,92.74
2022-10-20T03:41:22.932Z,92.94
2022-10-20T03:42:22.933Z,92.83
2022-10-20T03:43:22.900Z,92.83
2022-10-20T03:44:22.886Z,92.83
2022-10-20T03:45:22.872Z,92.94
2022-10-20T03:46:22.910Z,92.88
2022-10-20T03:47:22.855Z,92.88
2022-10-20T03:48:22.833Z,92.83
2022-10-20T03:49:22.830Z,92.83
2022-10-20T03:50:22.806Z,92.83
2022-10-20T03:51:22.797Z,92.83
2022-10-20T03:52:22.777Z,92.83
2022-10-20T03:53:22.767Z,92.83
2022-10-20T03:54:22.748Z,92.83
2022-10-20T03:55:22.737Z,92.88
2022-10-20T03:56:22.721Z,92.88
2022-10-20T03:57:22.718Z,92.83
2022-10-20T03:58:22.716Z,92.83
2022-10-20T03:59:24.473Z,92.83
2022-10-20T04:00:22.668Z,92.78
2022-10-20T04:01:22.702Z,92.83
2022-10-20T04:02:22.635Z,92.83
2022-10-20T04:03:22.626Z,92.83
2022-10-20T04:04:22.616Z,92.83
2022-10-20T04:05:22.598Z,92.94
2022-10-20T04:06:22.579Z,92.83
2022-10-20T04:07:22.575Z,92.83
2022-10-20T04:08:22.556Z,92.83
2022-10-20T04:09:22.544Z,92.83
2022-10-20T04:10:22.529Z,92.74
2022-10-20T04:11:22.516Z,92.74
2022-10-20T04:12:22.507Z,92.83
2022-10-20T04:13:22.492Z,92.74
2022-10-20T04:14:22.498Z,92.83
2022-10-20T04:15:22.467Z,92.83
2022-10-20T04:16:22.448Z,92.83
2022-10-20T04:17:22.442Z,92.83
2022-10-20T04:18:22.415Z,92.69
2022-10-20T04:19:22.406Z,92.69
2022-10-20T04:20:22.390Z,92.69
2022-10-20T04:21:22.377Z,92.74
2022-10-20T04:22:22.363Z,92.83
2022-10-20T04:23:22.349Z,92.83
2022-10-20T04:24:22.331Z,92.79
2022-10-20T04:25:22.322Z,92.83
2022-10-20T04:26:22.310Z,92.79
2022-10-20T04:27:22.303Z,92.79
2022-10-20T04:28:22.281Z,92.74
2022-10-20T04:29:22.267Z,92.74
2022-10-20T04:30:22.278Z,92.74
2022-10-20T04:31:22.245Z,92.79
2022-10-20T04:32:22.233Z,92.83
2022-10-20T04:33:22.216Z,92.83
2022-10-20T04:34:22.192Z,92.79
2022-10-20T04:35:22.183Z,92.63
2022-10-20T04:36:22.174Z,92.63
2022-10-20T04:37:22.162Z,92.83
2022-10-20T04:38:22.146Z,92.74
2022-10-20T04:39:22.133Z,92.74
2022-10-20T04:40:22.118Z,92.74
2022-10-20T04:41:22.114Z,92.63
2022-10-20T04:42:22.084Z,92.74
2022-10-20T04:43:22.079Z,92.83
2022-10-20T04:44:22.058Z,92.83
2022-10-20T04:45:22.054Z,92.74
2022-10-20T04:46:22.052Z,92.83
2022-10-20T04:47:22.017Z,92.78
2022-10-20T04:48:22.002Z,92.74
2022-10-20T04:49:21.990Z,92.74
2022-10-20T04:50:21.982Z,92.74
2022-10-20T04:51:21.967Z,92.74
2022-10-20T04:52:21.952Z,92.74
2022-10-20T04:53:21.940Z,92.74
2022-10-20T04:54:21.924Z,92.83
2022-10-20T04:55:21.918Z,92.83
2022-10-20T04:56:21.896Z,92.79
2022-10-20T04:57:21.896Z,92.83
2022-10-20T04:58:21.862Z,92.88
2022-10-20T04:59:21.851Z,92.94
2022-10-20T05:00:21.839Z,92.83
2022-10-20T05:01:21.861Z,92.83
2022-10-20T05:02:21.831Z,92.83
2022-10-20T05:03:21.796Z,92.94
2022-10-20T05:04:21.864Z,92.88
2022-10-20T05:05:21.773Z,92.83
2022-10-20T05:06:21.761Z,92.83
2022-10-20T05:07:21.747Z,92.74
2022-10-20T05:08:21.779Z,92.83
2022-10-20T05:09:21.723Z,92.88
2022-10-20T05:10:21.698Z,92.83
2022-10-20T05:11:21.686Z,92.88
2022-10-20T05:12:21.669Z,92.78
2022-10-20T05:13:21.667Z,92.83
2022-10-20T05:14:21.651Z,92.83
2022-10-20T05:15:21.638Z,92.88
2022-10-20T05:16:21.621Z,92.88
2022-10-20T05:17:21.610Z,92.83
2022-10-20T05:18:21.703Z,92.88
2022-10-20T05:19:21.581Z,92.88
2022-10-20T05:20:21.568Z,92.83
2022-10-20T05:21:21.557Z,92.83
2022-10-20T05:22:21.539Z,92.88
2022-10-20T05:23:21.529Z,92.98
2022-10-20T05:24:22.844Z,92.98
2022-10-20T05:25:37.225Z,92.98
2022-10-20T05:26:22.503Z,92.88
2022-10-20T05:27:21.469Z,92.98
2022-10-20T05:28:21.454Z,92.88
2022-10-20T05:29:21.441Z,92.98
2022-10-20T05:30:21.427Z,92.88
2022-10-20T05:31:21.420Z,92.93
2022-10-20T05:32:21.401Z,92.98
2022-10-20T05:33:21.387Z,92.98
2022-10-20T05:34:21.393Z,92.88
2022-10-20T05:35:21.365Z,92.93
2022-10-20T05:36:21.785Z,93.02
2022-10-20T05:37:24.193Z,93.02
2022-10-20T05:38:21.311Z,92.98
2022-10-20T05:39:21.311Z,92.93
2022-10-20T05:40:21.290Z,93.02
2022-10-20T05:41:21.281Z,93.02
2022-10-20T05:42:21.261Z,93.02
2022-10-20T05:43:21.245Z,93.02
2022-10-20T05:44:21.238Z,92.93
2022-10-20T05:45:21.219Z,92.93
2022-10-20T05:46:21.214Z,92.98
2022-10-20T05:47:21.196Z,93.02
2022-10-20T05:48:21.187Z,93.02
2022-10-20T05:49:21.167Z,92.93
2022-10-20T05:50:21.184Z,93.02
2022-10-20T05:51:21.141Z,93.02
2022-10-20T05:52:21.128Z,93.02
2022-10-20T05:53:21.112Z,92.93
2022-10-20T05:54:21.099Z,92.93
2022-10-20T05:55:21.128Z,93.02
2022-10-20T05:56:21.074Z,93.02
2022-10-20T05:57:21.059Z,92.93
2022-10-20T05:58:22.980Z,92.93
2022-10-20T05:59:21.032Z,92.82
2022-10-20T06:00:21.015Z,92.93
2022-10-20T06:01:21.290Z,92.88
2022-10-20T06:02:20.993Z,92.93
2022-10-20T06:03:23.744Z,92.93
2022-10-20T06:04:20.960Z,92.93
2022-10-20T06:05:20.944Z,92.93
2022-10-20T06:06:20.956Z,92.82
2022-10-20T06:07:20.917Z,92.82
2022-10-20T06:08:20.907Z,92.78
2022-10-20T06:09:20.893Z,92.78
2022-10-20T06:10:20.887Z,92.78
2022-10-20T06:11:20.859Z,92.93
2022-10-20T06:12:20.848Z,92.78
2022-10-20T06:13:20.831Z,92.88
2022-10-20T06:14:20.825Z,92.88
2022-10-20T06:15:20.808Z,92.82
2022-10-20T06:16:20.799Z,92.78
2022-10-20T06:17:20.785Z,92.68
2022-10-20T06:18:20.768Z,92.63
2022-10-20T06:19:20.757Z,92.78
2022-10-20T06:20:20.740Z,92.74
2022-10-20T06:21:20.722Z,92.74
2022-10-20T06:22:20.736Z,92.74
2022-10-20T06:23:20.695Z,92.74
2022-10-20T06:24:20.685Z,92.78
2022-10-20T06:25:20.668Z,92.78
2022-10-20T06:26:20.663Z,92.83
2022-10-20T06:27:20.644Z,92.74
2022-10-20T06:28:20.632Z,92.78
2022-10-20T06:29:20.616Z,92.74
2022-10-20T06:30:20.605Z,92.74
2022-10-20T06:31:20.603Z,92.74
2022-10-20T06:32:20.582Z,92.74
2022-10-20T06:33:20.561Z,92.74
2022-10-20T06:34:20.547Z,92.74
2022-10-20T06:35:20.528Z,92.83
2022-10-20T06:36:20.517Z,92.74
2022-10-20T06:37:20.502Z,92.79
2022-10-20T06:38:20.511Z,92.69
2022-10-20T06:39:20.474Z,92.69
2022-10-20T06:40:20.465Z,92.83
2022-10-20T06:41:20.449Z,92.94
2022-10-20T06:42:20.440Z,92.79
2022-10-20T06:43:20.433Z,92.90
2022-10-20T06:44:20.414Z,92.90
2022-10-20T06:45:20.396Z,92.79
2022-10-20T06:46:20.382Z,92.90
2022-10-20T06:47:20.370Z,93.00
2022-10-20T06:48:20.354Z,92.90
2022-10-20T06:49:20.337Z,93.00
2022-10-20T06:50:20.334Z,92.94
2022-10-20T06:51:20.314Z,93.15
2022-10-20T06:52:20.305Z,92.90
2022-10-20T06:53:20.285Z,93.00
2022-10-20T06:54:20.299Z,92.79
2022-10-20T06:55:20.261Z,92.79
2022-10-20T06:56:20.247Z,93.00
2022-10-20T06:57:20.234Z,93.00
2022-10-20T06:58:20.217Z,93.10
2022-10-20T06:59:20.202Z,93.00
2022-10-20T07:00:20.237Z,93.06
2022-10-20T07:01:20.209Z,93.06
2022-10-20T07:02:20.165Z,92.96
2022-10-20T07:03:20.149Z,92.96
2022-10-20T07:04:20.141Z,93.16
2022-10-20T07:05:20.129Z,93.06
2022-10-20T07:06:20.119Z,93.47
2022-10-20T07:07:20.102Z,93.32
2022-10-20T07:08:20.133Z,93.26
2022-10-20T07:09:20.074Z,93.32
2022-10-20T07:10:20.077Z,93.43
2022-10-20T07:11:20.046Z,93.38
2022-10-20T07:12:20.033Z,93.38
2022-10-20T07:13:20.020Z,93.38
2022-10-20T07:14:20.037Z,93.89
2022-10-20T07:15:19.981Z,93.69
2022-10-20T07:16:19.970Z,93.69
2022-10-20T07:17:19.958Z,93.69
2022-10-20T07:18:19.949Z,94.10
2022-10-20T07:19:19.934Z,94.10
2022-10-20T07:20:19.930Z,94.20
2022-10-20T07:21:19.909Z,94.10
2022-10-20T07:22:19.891Z,93.89
2022-10-20T07:23:19.873Z,94.26
2022-10-20T07:24:19.861Z,94.30
2022-10-20T07:25:19.951Z,94.26
2022-10-20T07:26:19.863Z,94.06
2022-10-20T07:27:19.824Z,93.95
2022-10-20T07:28:19.817Z,93.91
2022-10-20T07:29:19.794Z,94.17
2022-10-20T07:30:19.782Z,94.82
2022-10-20T07:31:19.769Z,94.68
2022-10-20T07:32:19.759Z,94.48
2022-10-20T07:33:19.741Z,94.17
2022-10-20T07:34:25.838Z,94.48
2022-10-20T07:35:20.744Z,94.43
2022-10-20T07:36:19.704Z,94.12
2022-10-20T07:37:20.034Z,94.33
2022-10-20T07:38:19.674Z,94.59
2022-10-20T07:39:19.663Z,94.38
2022-10-20T07:40:19.663Z,94.14
2022-10-20T07:41:19.628Z,94.45
2022-10-20T07:42:19.643Z,94.24
2022-10-20T07:43:19.601Z,94.45
2022-10-20T07:44:19.593Z,94.24
2022-10-20T07:45:19.579Z,94.40
2022-10-20T07:46:19.571Z,94.60
2022-10-20T07:47:19.554Z,94.04
2022-10-20T07:48:19.540Z,94.50
2022-10-20T07:50:19.512Z,94.26
2022-10-20T07:51:19.496Z,94.20
2022-10-20T07:52:19.489Z,94.15
2022-10-20T07:53:19.467Z,94.26
2022-10-20T07:54:19.464Z,94.05
2022-10-20T07:55:37.630Z,94.21
2022-10-20T07:56:20.461Z,93.90
2022-10-20T07:57:19.413Z,94.11
2022-10-20T07:58:19.424Z,94.21
2022-10-20T07:59:19.385Z,93.86
2022-10-20T08:00:19.378Z,93.86
2022-10-20T08:01:19.429Z,93.67
2022-10-20T08:02:19.389Z,93.43
2022-10-20T08:03:19.340Z,93.07
2022-10-20T08:04:19.327Z,92.12
2022-10-20T08:05:19.304Z,92.07
2022-10-20T08:06:19.294Z,91.36
2022-10-20T08:07:19.275Z,91.42
2022-10-20T08:08:19.267Z,91.26
2022-10-20T08:09:19.247Z,91.56
2022-10-20T08:10:19.244Z,91.41
2022-10-20T08:11:19.229Z,91.56
2022-10-20T08:12:19.217Z,91.20
2022-10-20T08:13:19.198Z,91.36
2022-10-20T08:14:19.208Z,91.56
2022-10-20T08:15:19.218Z,91.47
2022-10-20T08:16:19.813Z,91.16
2022-10-20T08:17:19.240Z,91.47
2022-10-20T08:18:20.405Z,91.87
2022-10-20T08:19:20.380Z,91.73
2022-10-20T08:20:21.323Z,91.63
2022-10-20T08:21:19.087Z,91.38
2022-10-20T08:22:19.080Z,90.77
2022-10-20T08:23:19.066Z,90.67
2022-10-20T08:24:19.045Z,91.17
2022-10-20T08:25:19.032Z,90.57
2022-10-20T08:26:19.025Z,90.22
2022-10-20T08:27:19.010Z,90.02
2022-10-20T08:28:21.197Z,90.18
2022-10-20T08:29:18.977Z,89.73
2022-10-20T08:30:23.885Z,90.03
2022-10-20T08:31:18.949Z,89.48
2022-10-20T08:32:18.943Z,89.89
2022-10-20T08:33:18.928Z,88.98
2022-10-20T08:34:18.918Z,88.94
2022-10-20T08:35:18.900Z,87.28
2022-10-20T08:36:18.892Z,87.95
2022-10-20T08:38:18.865Z,86.55
2022-10-20T08:39:18.895Z,85.94
2022-10-20T08:40:18.838Z,85.78
2022-10-20T08:41:18.820Z,86.19
2022-10-20T08:42:18.804Z,86.08
2022-10-20T08:43:18.796Z,86.79
2022-10-20T08:44:18.779Z,85.84
2022-10-20T08:45:18.765Z,86.15
2022-10-20T08:47:18.742Z,85.03
2022-10-20T08:48:18.727Z,85.44
2022-10-20T08:49:18.711Z,85.28
2022-10-20T08:50:18.698Z,86.69
2022-10-20T08:51:18.677Z,86.39
2022-10-20T08:52:18.670Z,86.19
2022-10-20T08:53:18.650Z,86.19
2022-10-20T08:54:18.648Z,86.49
2022-10-20T08:55:18.687Z,86.69
2022-10-20T08:56:18.616Z,86.29
2022-10-20T08:57:18.599Z,86.99
2022-10-20T08:58:18.589Z,87.40
2022-10-20T08:59:18.569Z,85.88
2022-10-20T09:00:18.560Z,86.45
2022-10-20T09:01:18.681Z,85.46
2022-10-20T09:02:18.562Z,84.47
2022-10-20T09:03:18.532Z,83.02
2022-10-20T09:04:18.507Z,82.51
2022-10-20T09:05:19.334Z,83.02
2022-10-20T09:06:18.482Z,82.56
2022-10-20T09:07:18.460Z,83.02
2022-10-20T09:08:18.448Z,81.75
2022-10-20T09:09:18.439Z,83.32
2022-10-20T09:10:18.426Z,83.02
2022-10-20T09:11:18.418Z,82.31
2022-10-20T09:12:18.400Z,81.71
2022-10-20T09:13:18.382Z,82.51
2022-10-20T09:14:18.367Z,82.98
2022-10-20T09:15:18.351Z,82.64
2022-10-20T09:16:27.308Z,81.13
2022-10-20T09:17:19.356Z,81.13
2022-10-20T09:18:18.342Z,82.14
2022-10-20T09:19:18.302Z,82.20
2022-10-20T09:20:18.291Z,81.09
2022-10-20T09:21:18.276Z,80.73
2022-10-20T09:22:18.260Z,79.28
2022-10-20T09:23:39.574Z,80.79
2022-10-20T09:24:19.253Z,80.69
2022-10-20T09:25:18.216Z,78.98
2022-10-20T09:26:30.597Z,78.91
2022-10-20T09:27:19.221Z,79.72
2022-10-20T09:28:18.189Z,80.36
2022-10-20T09:29:18.167Z,81.07
2022-10-20T09:30:18.292Z,81.71
2022-10-20T09:31:18.138Z,82.62
2022-10-20T09:32:48.370Z,81.95
2022-10-20T09:33:19.143Z,82.76
2022-10-20T09:34:18.127Z,82.15
2022-10-20T09:35:18.088Z,83.16
2022-10-20T09:36:18.083Z,83.20
2022-10-20T09:37:18.063Z,83.46
2022-10-20T09:38:18.053Z,83.87
2022-10-20T09:39:18.030Z,83.46
2022-10-20T09:40:18.108Z,84.21
2022-10-20T09:41:18.004Z,83.84
2022-10-20T09:42:17.996Z,84.35
2022-10-20T09:43:18.126Z,85.30
2022-10-20T09:44:17.969Z,86.00
2022-10-20T09:45:17.950Z,86.30
2022-10-20T09:46:17.953Z,86.61
2022-10-20T09:47:17.929Z,86.51
2022-10-20T09:48:17.920Z,86.71
2022-10-20T09:49:17.903Z,86.27
2022-10-20T09:50:17.987Z,86.27
2022-10-20T09:51:17.879Z,86.10
2022-10-20T09:52:17.861Z,86.57
2022-10-20T09:53:17.854Z,86.36
2022-10-20T09:54:17.841Z,85.96
2022-10-20T09:55:17.827Z,86.07
2022-10-20T09:56:17.817Z,86.27
2022-10-20T09:57:17.796Z,85.86
2022-10-20T09:58:17.777Z,86.47
2022-10-20T09:59:17.766Z,85.92
2022-10-20T10:00:35.779Z,85.98
2022-10-20T10:01:18.805Z,84.77
2022-10-20T10:02:17.730Z,85.48
2022-10-20T10:03:17.718Z,85.03
2022-10-20T10:04:17.703Z,83.22
2022-10-20T10:05:17.690Z,84.49
2022-10-20T10:06:17.694Z,84.29
2022-10-20T10:07:17.659Z,83.99
2022-10-20T10:08:17.650Z,83.65
2022-10-20T10:09:17.714Z,84.25
2022-10-20T10:10:17.625Z,83.65
2022-10-20T10:11:17.614Z,82.80
2022-10-20T10:12:17.602Z,82.60
2022-10-20T10:13:20.040Z,82.50
2022-10-20T10:14:17.566Z,82.48
2022-10-20T10:15:17.554Z,83.54
2022-10-20T10:16:17.538Z,83.84
2022-10-20T10:17:17.526Z,84.01
2022-10-20T10:18:17.513Z,83.31
2022-10-20T10:19:17.513Z,83.37
2022-10-20T10:20:17.490Z,81.29
2022-10-20T10:21:17.661Z,82.06
2022-10-20T10:22:17.481Z,81.65
2022-10-20T10:23:17.453Z,81.76
2022-10-20T10:24:17.430Z,81.35
2022-10-20T10:25:17.418Z,81.56
2022-10-20T10:26:17.404Z,81.70
2022-10-20T10:27:17.397Z,81.85
2022-10-20T10:28:17.454Z,81.79
2022-10-20T10:29:17.372Z,82.30
2022-10-20T10:30:17.356Z,81.90
2022-10-20T10:31:17.338Z,82.90
2022-10-20T10:32:17.318Z,82.54
2022-10-20T10:33:17.322Z,82.54
2022-10-20T10:34:17.297Z,82.18
2022-10-20T10:35:17.286Z,82.98
2022-10-20T10:36:17.269Z,83.28
2022-10-20T10:37:17.354Z,82.78
2022-10-20T10:38:17.259Z,83.22
2022-10-20T10:39:17.225Z,83.83
2022-10-20T10:40:17.209Z,84.23
2022-10-20T10:41:17.201Z,83.62
2022-10-20T10:42:17.187Z,84.13
2022-10-20T10:43:17.178Z,84.23
2022-10-20T10:44:17.161Z,84.74
2022-10-20T10:45:17.148Z,84.43
2022-10-20T10:46:17.141Z,84.53
2022-10-20T10:47:17.124Z,84.23
2022-10-20T10:48:17.107Z,84.13
2022-10-20T10:49:17.097Z,83.02
2022-10-20T10:50:17.094Z,83.59
2022-10-20T10:51:17.063Z,83.62
2022-10-20T10:52:17.050Z,83.89
2022-10-20T10:53:17.044Z,83.08
2022-10-20T10:54:17.054Z,83.39
2022-10-20T10:55:30.588Z,84.19
2022-10-20T10:56:18.027Z,84.13
2022-10-20T10:57:17.037Z,83.83
2022-10-20T10:58:16.977Z,84.19
2022-10-20T10:59:16.962Z,84.23
2022-10-20T11:00:16.944Z,83.72
2022-10-20T11:01:16.984Z,84.59
2022-10-20T11:02:16.921Z,84.80
2022-10-20T11:03:16.911Z,84.74
2022-10-20T11:04:16.896Z,85.10
2022-10-20T11:06:16.865Z,85.10
2022-10-20T11:07:16.856Z,84.80
2022-10-20T11:08:16.842Z,84.69
2022-10-20T11:09:16.833Z,84.29
2022-10-20T11:10:16.839Z,84.29
2022-10-20T11:11:16.803Z,84.15
2022-10-20T11:12:16.788Z,84.09
2022-10-20T11:13:16.776Z,84.55
2022-10-20T11:14:16.801Z,84.35
2022-10-20T11:15:16.750Z,84.35
2022-10-20T11:16:16.735Z,83.54
2022-10-20T11:17:16.725Z,83.20
2022-10-20T11:18:16.707Z,82.34
2022-10-20T11:19:16.697Z,83.04
2022-10-20T11:20:16.686Z,83.34
2022-10-20T11:21:16.670Z,83.31
2022-10-20T11:22:16.649Z,83.45
2022-10-20T11:23:16.641Z,84.41
2022-10-20T11:24:16.629Z,84.01
2022-10-20T11:25:16.614Z,83.31
2022-10-20T11:26:16.620Z,82.06
2022-10-20T11:27:16.590Z,82.36
2022-10-20T11:28:16.573Z,82.36
2022-10-20T11:29:16.561Z,82.26
2022-10-20T11:30:16.545Z,81.85
2022-10-20T11:31:16.534Z,81.76
2022-10-20T11:32:16.509Z,82.46
2022-10-20T11:33:16.505Z,81.49
2022-10-20T11:34:16.488Z,82.76
2022-10-20T11:35:16.682Z,83.40
2022-10-20T11:36:16.461Z,83.71
2022-10-20T11:37:16.460Z,83.91
2022-10-20T11:38:16.430Z,82.80
2022-10-20T11:39:16.423Z,84.25
2022-10-20T11:40:16.406Z,84.25
2022-10-20T11:41:16.396Z,84.65
2022-10-20T11:42:16.402Z,84.55
2022-10-20T11:43:16.371Z,84.75
2022-10-20T11:44:16.357Z,84.65
2022-10-20T11:45:16.345Z,84.65
2022-10-20T11:46:16.326Z,85.30
2022-10-20T11:47:16.309Z,85.80
2022-10-20T11:48:16.304Z,85.56
2022-10-20T11:49:16.290Z,85.10
2022-10-20T11:50:16.274Z,85.50
2022-10-20T11:51:16.276Z,84.80
2022-10-20T11:52:16.248Z,85.00
2022-10-20T11:53:16.236Z,85.40
2022-10-20T11:54:16.221Z,85.50
2022-10-20T11:55:16.205Z,85.40
2022-10-20T11:56:16.189Z,85.90
2022-10-20T11:57:16.241Z,86.04
2022-10-20T11:58:16.189Z,86.00
2022-10-20T11:59:16.156Z,86.35
2022-10-20T12:00:16.194Z,86.24
2022-10-20T12:01:16.126Z,86.21
2022-10-20T12:02:16.155Z,86.30
2022-10-20T12:03:16.103Z,86.41
2022-10-20T12:04:16.088Z,86.30
2022-10-20T12:05:16.157Z,86.41
2022-10-20T12:06:16.110Z,86.41
2022-10-20T12:07:16.052Z,86.00
2022-10-20T12:08:29.406Z,86.51
2022-10-20T12:09:17.178Z,86.51
2022-10-20T12:10:16.009Z,86.06
2022-10-20T12:11:16.003Z,85.76
2022-10-20T12:12:15.985Z,85.76
2022-10-20T12:13:15.974Z,85.86
2022-10-20T12:14:16.002Z,85.56
2022-10-20T12:15:18.991Z,85.46
2022-10-20T12:16:15.946Z,85.46
2022-10-20T12:17:15.917Z,85.46
2022-10-20T12:18:15.900Z,85.36
2022-10-20T12:19:15.888Z,85.46
2022-10-20T12:20:15.871Z,86.00
2022-10-20T12:21:15.913Z,85.56
2022-10-20T12:22:15.933Z,85.70
2022-10-20T12:23:15.834Z,85.76
2022-10-20T12:24:15.819Z,86.30
2022-10-20T12:25:15.819Z,86.10
2022-10-20T12:26:15.796Z,86.30
2022-10-20T12:27:15.791Z,86.51
2022-10-20T12:28:15.776Z,86.41
2022-10-20T12:29:15.760Z,86.81
2022-10-20T12:30:15.761Z,87.21
2022-10-20T12:31:15.730Z,87.41
2022-10-20T12:32:15.715Z,87.55
2022-10-20T12:33:15.704Z,87.25
2022-10-20T12:34:15.681Z,86.95
2022-10-20T12:35:15.676Z,87.25
2022-10-20T12:36:15.655Z,87.15
2022-10-20T12:37:15.647Z,87.55
2022-10-20T12:38:15.631Z,87.55
2022-10-20T12:39:15.616Z,87.55
2022-10-20T12:40:15.610Z,87.55
2022-10-20T12:41:15.595Z,87.45
2022-10-20T12:42:15.578Z,88.16
2022-10-20T12:43:15.568Z,88.02
2022-10-20T12:44:15.551Z,88.52
2022-10-20T12:45:15.538Z,89.12
2022-10-20T12:46:15.612Z,89.03
2022-10-20T12:47:15.511Z,88.62
2022-10-20T12:48:15.496Z,88.82
2022-10-20T12:49:15.490Z,88.72
2022-10-20T12:50:15.497Z,88.72
2022-10-20T12:51:15.460Z,89.23
2022-10-20T12:52:15.447Z,89.63
2022-10-20T12:53:15.431Z,89.59
2022-10-20T12:54:15.418Z,89.39
2022-10-20T12:55:15.530Z,88.68
2022-10-20T12:56:15.389Z,88.78
2022-10-20T12:57:15.377Z,89.79